• Join FlightAware (Why Join?)
  • Login
  • US Flag 
06:44AM EDT


 

Airport Tracker/Info


-or-


 

Live Flight TrackerFlight Track Log ✈ AAL1811 ✈ 02-May-2013 ✈ KORD - KLAS

Flight Track Log - Related Links

Times and Time Zones

All times are in EDT time to prevent confusion due to time zone crossing. See the AAL1811 flight status page for this flight to view local times or setup timezone preferences in your user account.

Time Position Orientation Groundspeed Altitude Reporting Facility
EDT Latitude Longitude Course Direction KTS MPH feet Rate Location/Type
05:16PM 42.0167 -87.9833 270° West 191 220 3,000  Level Chicago TRACON
05:17PM 41.9667 -88.2109 270° West  Level FlightAware Approximate
05:17PM 42.0500 -88.0667 298° West 243 280 4,400  Level Chicago TRACON
05:18PM 41.9667 -88.3664 270° West  Level FlightAware Approximate
05:18PM 42.0517 -88.2511 271° West 286 329 8,700  Level Chicago Center
05:19PM 41.9667 -88.5218 270° West  Level FlightAware Approximate
05:20PM 41.9668 -88.6773 270° West  Level FlightAware Approximate
05:20PM 42.0592 -88.3608 275° West 297 342 11,400  Level Chicago Center
05:21PM 41.9668 -88.8332 270° West  Level FlightAware Approximate
05:21PM 42.0814 -88.4717 285° West 313 360 13,600  Level Chicago Center
05:22PM 42.1053 -88.5811 286° West 310 357 16,000 1,800 Climbing Chicago Center
05:23PM 42.1089 -88.6972 272° West 313 360 17,400 1,140 Climbing Chicago Center
05:24PM 42.0919 -88.8553 262° West 352 405 18,400 1,200 Climbing Chicago Center
05:25PM 42.0800 -88.9981 264° West 375 432 20,000 1,440 Climbing Chicago Center
05:26PM 42.0711 -89.1478 265° West 396 456 21,400 1,440 Climbing Chicago Center
05:27PM 42.0642 -89.2958 266° West 403 464 23,000 1,500 Climbing Chicago Center
05:28PM 42.0611 -89.4486 269° West 410 472 24,600 1,380 Climbing Chicago Center
05:29PM 42.0550 -89.6353 268° West 417 480 25,900 1,260 Climbing Chicago Center
05:30PM 42.0517 -89.7942 268° West 427 491 27,300 1,200 Climbing Chicago Center
05:31PM 42.0494 -89.9544 269° West 431 496 28,500 1,200 Climbing Chicago Center
05:32PM 42.0494 -90.1169 270° West 436 502 29,900 1,080 Climbing Chicago Center
05:33PM 42.0700 -90.2728 280° West 429 494 30,800 840 Climbing Chicago Center
05:34PM 42.0853 -90.4647 276° West 432 497 31,700 540 Climbing Chicago Center
05:35PM 42.0992 -90.6258 277° West 435 501 32,000 120 Climbing Chicago Center
05:36PM 42.1119 -90.7875 276° West 437 503 32,000  Level Chicago Center
05:37PM 42.1264 -90.9483 277° West 434 499 32,000  Level Chicago Center
05:38PM 42.1369 -91.1125 275° West 440 506 32,000  Level Chicago Center
05:39PM 42.1494 -91.2717 276° West 432 497 32,000 -60 Level Chicago Center
05:40PM 42.1636 -91.4658 276° West 435 501 31,900  Descending Chicago Center
05:41PM 42.1761 -91.6253 276° West 430 495 32,000  Climbing Chicago Center
05:42PM 42.1878 -91.7858 276° West 430 495 32,000  Level Chicago Center
05:43PM 42.1989 -91.9450 275° West 429 494 32,000 -60 Level Chicago Center
05:44PM 42.2100 -92.1050 275° West 429 494 31,900  Descending Chicago Center
05:45PM 42.2183 -92.2339 275° West 428 493 32,000  Climbing Minneapolis Center
05:46PM 42.2333 -92.4575 275° West 430 495 31,900  Descending Minneapolis Center
05:47PM 42.2417 -92.5847 275° West 428 493 32,000  Climbing Minneapolis Center
05:48PM 42.2536 -92.7761 275° West 429 494 32,000  Level Minneapolis Center
05:50PM 42.2631 -92.9331 275° West 423 487 32,000  Level Minneapolis Center
05:51PM 42.2711 -93.0608 275° West 426 490 32,000  Level Minneapolis Center
05:52PM 42.2828 -93.2519 275° West 428 493 32,000  Level Minneapolis Center
05:53PM 42.2939 -93.4414 275° West 425 489 32,000 -60 Level Minneapolis Center
05:54PM 42.3033 -93.5994 275° West 425 489 31,900 -60 Descending Minneapolis Center
05:55PM 42.3117 -93.7567 274° West 423 487 31,900  Level Minneapolis Center
05:56PM 42.3192 -93.9142 274° West 425 489 32,000  Climbing Minneapolis Center
05:57PM 42.3269 -94.0722 274° West 423 487 31,900  Descending Minneapolis Center
05:58PM 42.3364 -94.2592 274° West 424 488 32,000  Climbing Minneapolis Center
05:59PM 42.3464 -94.4169 275° West 423 487 31,900 -60 Descending Minneapolis Center
06:00PM 42.3525 -94.5756 273° West 424 488 31,900  Level Minneapolis Center
06:01PM 42.3594 -94.7322 273° West 421 484 32,000  Climbing Minneapolis Center
06:02PM 42.3669 -94.8908 274° West 424 488 31,900 -60 Descending Minneapolis Center
06:03PM 42.3750 -95.0811 273° West 424 488 31,900  Level Minneapolis Center
06:04PM 42.3817 -95.2417 273° West 427 491 32,000  Climbing Minneapolis Center
06:05PM 42.3869 -95.3694 273° West 428 493 32,000  Level Minneapolis Center
06:06PM 42.3944 -95.5592 273° West 424 488 32,000  Level Minneapolis Center
06:07PM 42.3983 -95.6842 272° West 421 484 32,000  Level Minneapolis Center
06:08PM 42.4058 -95.8678 273° West 412 474 32,000  Level Minneapolis Center
06:09PM 42.4108 -96.0275 272° West 416 479 32,000  Level Minneapolis Center
06:10PM 42.4172 -96.2144 273° West 420 483 32,000  Level Minneapolis Center
06:11PM 42.4228 -96.3731 273° West 423 487 32,000 -60 Level Minneapolis Center
06:12PM 42.4272 -96.5300 272° West 420 483 31,900  Descending Minneapolis Center
06:13PM 42.4308 -96.6872 272° West 418 481 32,000  Climbing Minneapolis Center
06:14PM 42.4358 -96.8453 273° West 420 483 31,900 -60 Descending Minneapolis Center
06:15PM 42.4397 -97.0033 272° West 422 486 31,900  Level Minneapolis Center
06:16PM 42.4444 -97.1917 272° West 420 483 32,000  Climbing Minneapolis Center
06:18PM 42.4481 -97.3475 272° West 416 479 31,900  Descending Minneapolis Center
06:19PM 42.4525 -97.5344 272° West 415 478 32,000  Climbing Minneapolis Center
06:20PM 42.4547 -97.6942 271° West 423 487 32,000  Level Minneapolis Center
06:21PM 42.4569 -97.8208 271° West 423 487 32,000  Level Minneapolis Center
06:22PM 42.4606 -98.0183 271° West 424 488 32,000  Level Minneapolis Center
06:23PM 42.4636 -98.1797 272° West 428 493 32,000  Level Minneapolis Center
06:24PM 42.4664 -98.3731 271° West 429 494 32,000  Level Minneapolis Center
06:25PM 42.4681 -98.5328 271° West 426 490 32,000  Level Minneapolis Center
06:26PM 42.4694 -98.6961 271° West 432 497 32,000  Level Minneapolis Center
06:27PM 42.4528 -98.8547 262° West 427 491 32,000  Level Minneapolis Center
06:28PM 42.4372 -99.0117 262° West 424 488 32,000 -60 Level Minneapolis Center
06:29PM 42.4217 -99.1706 262° West 426 490 31,900  Descending Minneapolis Center
06:30PM 42.4053 -99.3308 262° West 431 496 32,000  Climbing Minneapolis Center
06:31PM 42.3906 -99.4611 261° West 433 498 32,000  Level Denver Center
06:32PM 42.3733 -99.6228 262° West 435 501 32,000  Level Denver Center
06:33PM 42.3553 -99.7944 262° West 442 509 32,000  Level Denver Center
06:34PM 42.3350 -99.9761 261° West 439 505 32,000  Level Denver Center
06:35PM 42.3175 -100.1311 261° West 438 504 32,000  Level Denver Center
06:36PM 42.2972 -100.3158 262° West 444 511 32,000  Level Denver Center
06:37PM 42.2794 -100.4731 261° West 446 513 32,000  Level Denver Center
06:38PM 42.2578 -100.6556 261° West 442 509 32,000  Level Denver Center
06:39PM 42.2397 -100.8147 261° West 447 514 32,000  Level Denver Center
06:40PM 42.2142 -101.0264 261° West 452 520 32,000  Level Denver Center
06:41PM 42.1931 -101.2069 261° West 438 504 32,000  Level Denver Center
06:42PM 42.1742 -101.3656 261° West 446 513 32,000  Level Denver Center
06:43PM 42.1508 -101.5497 260° West 447 514 32,000  Level Denver Center
06:44PM 42.1311 -101.7094 261° West 452 520 32,000  Level Denver Center
06:45PM 42.1067 -101.8961 260° West 454 522 32,000  Level Denver Center
06:46PM 42.0872 -102.0533 261° West 449 517 32,000  Level Denver Center
06:47PM 42.0647 -102.2222 260° West 452 520 32,000  Level Denver Center
06:48PM 42.0406 -102.4069 260° West 448 516 32,000  Level Denver Center
06:49PM 42.0200 -102.5628 260° West 443 510 32,000  Level Denver Center
06:51PM 41.9992 -102.7203 260° West 446 513 32,000  Level Denver Center
06:52PM 41.9719 -102.9106 259° West 461 531 32,000  Level Denver Center
06:53PM 41.9242 -103.0622 247° West 469 540 32,000  Level Denver Center
06:54PM 41.8581 -103.2419 244° Southwest 478 550 32,000  Level Denver Center
06:55PM 41.8058 -103.3936 245° Southwest 472 543 32,000  Level Denver Center
06:56PM 41.7444 -103.5678 245° Southwest 463 533 32,000  Level Denver Center
06:57PM 41.6903 -103.7192 244° Southwest 468 539 32,000  Level Denver Center
06:58PM 41.6269 -103.8953 244° Southwest 469 540 32,000  Level Denver Center
06:59PM 41.5642 -104.0683 244° Southwest 463 533 32,000  Level Denver Center
07:00PM 41.5006 -104.2417 244° Southwest 464 534 32,000  Level Denver Center
07:01PM 41.4464 -104.3889 244° Southwest 463 533 32,000  Level Denver Center
07:02PM 41.3742 -104.5850 244° Southwest 462 532 32,000  Level Denver Center
07:03PM 41.3186 -104.7344 244° Southwest 466 536 32,000  Level Denver Center
07:04PM 41.2558 -104.9103 245° Southwest 470 541 32,000  Level Denver Center
07:05PM 41.2008 -105.0567 244° Southwest 465 535 32,000  Level Denver Center
07:06PM 41.1358 -105.2242 243° Southwest 460 529 32,000  Level Denver Center
07:07PM 41.0808 -105.3697 243° Southwest 460 529 32,000  Level Denver Center
07:08PM 41.0164 -105.5386 243° Southwest 461 531 32,000  Level Denver Center
07:10PM 40.9617 -105.6803 243° Southwest 465 535 32,000  Level Denver Center
07:11PM 40.9031 -105.8328 243° Southwest 464 534 32,000  Level Denver Center
07:12PM 40.8344 -106.0081 243° Southwest 459 528 32,000  Level Denver Center
07:13PM 40.7856 -106.1347 243° Southwest 460 529 32,000  Level Denver Center
07:14PM 40.7239 -106.2972 243° Southwest 460 529 32,000  Level Denver Center
07:15PM 40.6572 -106.4636 242° Southwest 460 529 32,000  Level Denver Center
07:16PM 40.6006 -106.6056 242° Southwest 460 529 32,000  Level Denver Center
07:17PM 40.5428 -106.7528 243° Southwest 454 522 32,000  Level Denver Center
07:18PM 40.4786 -106.9128 242° Southwest 457 526 32,000  Level Denver Center
07:19PM 40.4128 -107.0775 242° Southwest 457 526 32,000  Level Denver Center
07:20PM 40.3567 -107.2178 242° Southwest 454 522 32,000  Level Denver Center
07:21PM 40.3092 -107.3358 242° Southwest 457 526 32,000  Level Denver Center
07:22PM 40.2328 -107.5239 242° Southwest 458 527 32,000  Level Denver Center
07:23PM 40.1658 -107.6861 242° Southwest 456 525 32,000  Level Denver Center
07:24PM 40.1083 -107.8244 242° Southwest 452 520 32,000  Level Denver Center
07:25PM 40.0386 -107.9872 241° Southwest 459 528 32,000  Level Denver Center
07:26PM 39.9725 -108.1219 237° Southwest 461 531 32,000  Level Denver Center
07:27PM 39.9100 -108.2575 239° Southwest 457 526 32,000  Level Denver Center
07:28PM 39.8342 -108.4119 237° Southwest 462 532 32,000  Level Denver Center
07:29PM 39.7806 -108.5208 237° Southwest 440 506 32,000  Level Denver Center
07:30PM 39.6956 -108.6972 238° Southwest 453 521 32,000  Level Denver Center
07:31PM 39.6231 -108.8467 238° Southwest 465 535 32,000  Level Denver Center
07:32PM 39.5583 -108.9767 237° Southwest 455 524 32,000  Level Denver Center
07:33PM 39.4831 -109.1297 238° Southwest 453 521 32,000  Level Denver Center
07:34PM 39.4183 -109.2608 237° Southwest 452 520 32,000  Level Denver Center
07:35PM 39.3428 -109.4122 237° Southwest 448 516 32,000  Level Denver Center
07:36PM 39.3219 -109.4564 239° Southwest 449 517 32,000  Level Salt Lake Center
07:37PM 39.2575 -109.5856 237° Southwest 448 516 32,000  Level Salt Lake Center
07:38PM 39.1822 -109.7342 237° Southwest 443 510 32,000  Level Salt Lake Center
07:38PM 39.1392 -109.8181 237° Southwest 440 506 32,000  Level Denver Center
07:39PM 39.0664 -109.9678 238° Southwest 440 506 32,000  Level Denver Center
07:40PM 39.0547 -109.9889 235° Southwest 442 509 32,000  Level Salt Lake Center
07:41PM 38.9775 -110.1347 236° Southwest 443 510 32,000  Level Salt Lake Center
07:42PM 38.9053 -110.2561 233° Southwest 446 513 32,000  Level Salt Lake Center
07:43PM 38.8239 -110.3994 234° Southwest 446 513 32,000  Level Salt Lake Center
07:44PM 38.7533 -110.5208 233° Southwest 444 511 32,000  Level Salt Lake Center
07:45PM 38.6719 -110.6628 234° Southwest 443 510 32,000  Level Salt Lake Center
07:46PM 38.6017 -110.7833 233° Southwest 442 509 32,000 -60 Level Salt Lake Center
07:47PM 38.5700 -110.9442 256° West 422 486 31,900  Descending Salt Lake Center
07:48PM 38.5594 -111.0814 264° West 399 459 32,000  Climbing Salt Lake Center
07:49PM 38.5514 -111.2181 266° West 389 448 32,000  Level Salt Lake Center
07:50PM 38.5439 -111.3564 266° West 390 449 32,000  Level Salt Lake Center
07:51PM 38.4914 -111.4803 242° Southwest 408 470 32,000  Level Salt Lake Center
07:52PM 38.3789 -111.5342 201° Southwest 430 495 32,000  Level Salt Lake Center
07:53PM 38.2522 -111.5436 183° South 452 520 32,000  Level Salt Lake Center
07:54PM 38.0986 -111.5408 179° South 456 525 32,000  Level Salt Lake Center
07:55PM 37.9714 -111.5383 179° South 456 525 32,000  Level Salt Lake Center
07:56PM 37.8639 -111.6125 209° Southwest 445 512 32,000  Level Salt Lake Center
07:57PM 37.7817 -111.7286 228° Southwest 443 510 32,000  Level Salt Lake Center
07:58PM 37.7122 -111.8525 235° Southwest 433 498 32,000  Level Salt Lake Center
07:59PM 37.6519 -111.9839 240° Southwest 433 498 32,000  Level Salt Lake Center
08:00PM 37.5878 -112.1125 238° Southwest 433 498 32,000  Level Salt Lake Center
08:01PM 37.5350 -112.2150 237° Southwest 433 498 32,000  Level Los Angeles Center
08:01PM 37.5242 -112.2411 242° Southwest 432 497 32,000  Level Salt Lake Center
08:02PM 37.4464 -112.3947 238° Southwest 432 497 32,000  Level Salt Lake Center
08:03PM 37.3806 -112.5233 237° Southwest 433 498 32,000  Level Salt Lake Center
08:04PM 37.3400 -112.6011 237° Southwest 435 501 32,000  Level Los Angeles Center
08:04PM 37.3144 -112.6547 239° Southwest 438 504 32,000 -300 Level Salt Lake Center
08:06PM 37.2472 -112.7844 237° Southwest 439 505 31,600 -960 Descending Salt Lake Center
08:07PM 37.1828 -112.9131 238° Southwest 435 501 30,100 -1,500 Descending Salt Lake Center
08:08PM 37.1164 -113.0408 237° Southwest 434 499 28,600 -1,560 Descending Salt Lake Center
08:08PM 37.0642 -113.1417 237° Southwest 433 498 27,400 -1,560 Descending Los Angeles Center
08:09PM 37.0019 -113.2644 238° Southwest 423 487 25,900 -1,440 Descending Los Angeles Center
08:10PM 36.9397 -113.3833 237° Southwest 413 475 24,400 -1,440 Descending Los Angeles Center
08:11PM 36.8775 -113.5022 237° Southwest 410 472 22,900 -1,500 Descending Los Angeles Center
08:12PM 36.8169 -113.6189 237° Southwest 404 465 21,400 -1,260 Descending Los Angeles Center
08:13PM 36.7575 -113.7333 237° Southwest 396 456 20,400 -720 Descending Los Angeles Center
08:15PM 36.6878 -113.8694 237° Southwest 391 450 20,000 -300 Descending Los Angeles Center
08:16PM 36.6294 -113.9822 237° Southwest 387 445 19,800 -1,080 Descending Los Angeles Center
08:17PM 36.5694 -114.0950 237° Southwest 390 449 17,800 -1,980 Descending Los Angeles Center
08:18PM 36.5125 -114.2231 241° Southwest 385 443 15,800 -1,980 Descending Los Angeles Center
08:19PM 36.4619 -114.3342 241° Southwest 372 428 13,800 -1,980 Descending Los Angeles Center
08:19PM 36.4372 -114.3931 242° Southwest 368 423 12,800 -1,560 Descending Los Angeles Center
08:20PM 36.4117 -114.4422 237° Southwest 364 419 12,200 -1,020 Descending Los Angeles Center
08:20PM 36.3764 -114.4886 227° Southwest 333 383 11,800 -900 Descending Los Angeles Center
08:21PM 36.3369 -114.4931 185° South 327 376 11,300 -1,320 Descending Los Angeles Center
08:21PM 36.2947 -114.5111 199° South 302 348 10,500 -1,080 Descending Los Angeles Center
08:22PM 36.2658 -114.5389 218° Southwest 295 339 10,200 -780 Descending Los Angeles Center
08:22PM 36.2561 -114.5803 254° West 272 313 9,800 -960 Descending Los Angeles Center
08:23PM 36.2425 -114.6247 249° West 265 305 9,200 -1,260 Descending Los Angeles Center
08:23PM 36.2269 -114.6731 248° West 252 290 8,400 -1,260 Descending Los Angeles Center
08:24PM 36.2117 -114.7200 248° West 250 288 7,900 -600 Descending Los Angeles Center
08:24PM 36.2058 -114.7442 253° West 251 289 7,900  Level Los Angeles Center
08:25PM 36.1875 -114.8017 248° West 251 289 7,900  Level Los Angeles Center
08:25PM 36.1769 -114.8392 251° West 253 291 7,900  Level Los Angeles Center
08:26PM 36.1631 -114.8842 249° West 253 291 7,900  Level Los Angeles Center
08:26PM 36.1536 -114.9189 251° West 251 289 7,900  Level Los Angeles Center
08:27PM 36.1383 -114.9664 248° West 254 292 7,900  Level Los Angeles Center
08:27PM 36.1264 -115.0025 248° West 253 291 7,900  Level Los Angeles Center
08:28PM 36.1075 -115.0422 240° Southwest 251 289 7,900  Level Los Angeles Center
08:28PM 36.0806 -115.0603 208° Southwest 248 285 7,900  Level Los Angeles Center
08:29PM 36.0403 -115.0878 209° Southwest 231 266 7,900  Level Los Angeles Center
08:29PM 36.0281 -115.0964 210° Southwest 203 234 7,900  Level Los Angeles Center
08:30PM 35.9925 -115.1203 209° Southwest 205 236 7,900  Level Los Angeles Center
08:30PM 35.9775 -115.1317 212° Southwest 195 224 7,900  Level Los Angeles Center
08:31PM 35.9444 -115.1511 205° Southwest 196 226 7,900 -420 Level Los Angeles Center
08:31PM 35.9261 -115.1644 210° Southwest 198 228 7,500 -1,020 Descending Los Angeles Center
08:32PM 35.8944 -115.1842 207° Southwest 200 230 6,900 -600 Descending Los Angeles Center
08:32PM 35.8744 -115.1947 203° Southwest 203 234 6,900  Level Los Angeles Center
08:33PM 35.8442 -115.2139 207° Southwest 200 230 6,900  Level Los Angeles Center
08:33PM 35.8392 -115.2408 257° West 202 232 6,900  Level Los Angeles Center
08:34PM 35.8639 -115.2722 314° West 205 236 6,900 -720 Level Los Angeles Center
08:35PM 35.9189 -115.2589 11° North 189 217 5,700 -960 Descending Los Angeles Center
08:36PM 35.9667 -115.2311 25° Northeast 184 212 4,900 -780 Descending Los Angeles Center